Adrar, Algeria
Current Conditions -  °F | °C
As of 9:00 AM on Wednesday 22 Oct 2014 (Local Time) from DAUA Reporting Station
Clear Clear  
Wind Chill: 72°   Ceiling: Unl
Heat Index: 72°   Visibility: 6mi
Dew Point: 37°   Wind: 0mph
Humidity: 29%   Direction: NA
Pressure: 30.09"   Gusts: NA
Location:  27.87°N, 0.29°W
Report Text: DAUA 220800Z 00000KT CAVOK 22/03 Q1019
Loading
Personal Weather Stations






























Interactive Weather Map
Tropical Storm Tracking
New forecast layout! Learn more

10-Day Weather Forecast

Advertisements
Track Severe Weather on mobile